Time;durP1;ratioP1;P1;durP2;ratioP2;P2;SDS_P1;SDS_P2;PMS_P1;PMS_P2;Temp;Humidity;BMP_temperature;BMP_pressure;BME280_temperature;BME280_humidity;BME280_pressure;Samples;Min_cycle;Max_cycle;Signal;HPM_P1;HPM_P2
2023/01/27 00:00:46;;;;;;;0.30;0.30;;;0.50;92.70;;;;;;5054670;28;20194;-67
2023/01/27 00:03:12;;;;;;;0.40;0.40;;;0.40;92.80;;;;;;5055296;28;20839;-67
2023/01/27 00:05:38;;;;;;;0.40;0.40;;;0.40;93.20;;;;;;5055485;28;20205;-68
2023/01/27 00:08:04;;;;;;;0.40;0.40;;;0.40;93.10;;;;;;5055408;28;20194;-68
2023/01/27 00:10:30;;;;;;;0.90;0.90;;;0.30;93.20;;;;;;5055005;28;20651;-68
2023/01/27 00:15:39;;;;;;;0.30;0.30;;;0.40;93.50;;;;;;5055809;28;20205;-68
2023/01/27 00:18:06;;;;;;;0.30;0.30;;;0.30;93.40;;;;;;5055351;28;20540;-68
2023/01/27 00:26:18;;;;;;;0.30;0.30;;;0.30;93.60;;;;;;5053138;28;20233;-68
2023/01/27 00:28:45;;;;;;;0.30;0.30;;;0.50;93.40;;;;;;5054878;28;20207;-68
2023/01/27 00:34:00;;;;;;;0.95;0.82;;;0.50;93.30;;;;;;5054644;28;20611;-68
2023/01/27 00:36:28;;;;;;;0.40;0.40;;;0.50;93.10;;;;;;5055276;28;20246;-68
2023/01/27 00:38:53;;;;;;;0.30;0.30;;;0.40;93.20;;;;;;5054874;28;20232;-68
2023/01/27 00:41:19;;;;;;;0.40;0.40;;;0.30;93.60;;;;;;5054952;28;20189;-68
2023/01/27 00:43:49;;;;;;;3.90;0.87;;;0.20;93.80;;;;;;5054766;28;20166;-68
2023/01/27 00:46:16;;;;;;;0.38;0.38;;;0.20;94.10;;;;;;5055204;28;20635;-68
2023/01/27 00:48:43;;;;;;;0.47;0.47;;;0.10;94.20;;;;;;5054906;28;20589;-68
2023/01/27 00:51:09;;;;;;;0.73;0.73;;;0.20;94.30;;;;;;5054735;28;20196;-67
2023/01/27 00:53:35;;;;;;;0.37;0.37;;;0.30;94.20;;;;;;5054381;28;20170;-68
2023/01/27 00:56:00;;;;;;;0.40;0.40;;;0.30;94.10;;;;;;5054370;28;20429;-68
2023/01/27 00:58:27;;;;;;;0.50;0.50;;;0.30;94.10;;;;;;5054827;28;20200;-67
2023/01/27 01:00:54;;;;;;;0.70;0.70;;;0.40;94.30;;;;;;5055179;28;20230;-67
2023/01/27 01:03:21;;;;;;;0.73;0.73;;;0.40;94.00;;;;;;5054060;28;20176;-68
2023/01/27 01:05:47;;;;;;;0.70;0.70;;;0.50;93.70;;;;;;5054197;28;20640;-68
2023/01/27 01:08:13;;;;;;;1.20;1.20;;;0.50;93.50;;;;;;5054044;28;20171;-68
2023/01/27 01:10:38;;;;;;;0.83;0.83;;;0.50;93.60;;;;;;5054303;28;20762;-68
2023/01/27 01:13:06;;;;;;;1.10;1.00;;;0.60;93.80;;;;;;5053982;28;20176;-68
2023/01/27 01:15:35;;;;;;;1.15;1.13;;;0.70;93.80;;;;;;5054436;28;20623;-68
2023/01/27 01:18:02;;;;;;;0.30;0.30;;;0.60;93.60;;;;;;5054558;28;20179;-68
2023/01/27 01:20:28;;;;;;;0.40;0.40;;;0.50;93.50;;;;;;5053157;28;20256;-68
2023/01/27 01:22:54;;;;;;;0.40;0.40;;;0.40;93.40;;;;;;5053592;28;20268;-67
2023/01/27 01:25:19;;;;;;;0.90;0.90;;;0.40;93.80;;;;;;5054350;28;20172;-68
2023/01/27 01:27:45;;;;;;;4.00;1.70;;;0.50;93.70;;;;;;5054294;28;20180;-68
2023/01/27 01:30:11;;;;;;;0.40;0.40;;;0.50;93.60;;;;;;5053754;28;20210;-68
2023/01/27 01:32:37;;;;;;;0.30;0.30;;;0.40;93.30;;;;;;5054171;28;20649;-68
2023/01/27 01:35:03;;;;;;;2.10;2.00;;;0.30;93.20;;;;;;5053782;28;20253;-67
2023/01/27 01:37:28;;;;;;;0.40;0.40;;;0.20;93.50;;;;;;5053810;28;20566;-68
2023/01/27 01:39:54;;;;;;;0.83;0.83;;;0.20;93.50;;;;;;5054170;28;20784;-68
2023/01/27 01:42:19;;;;;;;0.90;0.90;;;0.30;93.80;;;;;;5053616;28;20171;-67
2023/01/27 01:44:45;;;;;;;3.13;0.87;;;0.30;93.30;;;;;;5054107;28;20253;-67
2023/01/27 01:47:17;;;;;;;0.30;0.30;;;0.20;93.10;;;;;;5053929;28;20183;-68
2023/01/27 01:49:46;;;;;;;0.88;0.88;;;0.10;93.10;;;;;;5053691;28;20213;-67
2023/01/27 01:52:18;;;;;;;0.68;0.68;;;0.10;93.10;;;;;;5053493;28;20166;-68
2023/01/27 01:54:50;;;;;;;2.88;2.78;;;-0.20;93.40;;;;;;5054003;28;20154;-68
2023/01/27 01:57:22;;;;;;;0.40;0.40;;;-0.40;94.00;;;;;;5054065;28;20178;-68
2023/01/27 01:59:54;;;;;;;1.45;1.35;;;-0.60;94.40;;;;;;5053642;28;20230;-68
2023/01/27 02:02:23;;;;;;;0.50;0.50;;;-0.50;95.00;;;;;;5053621;28;20166;-68
2023/01/27 02:05:14;;;;;;;0.55;0.55;;;-0.40;95.00;;;;;;5053618;28;20179;-68
2023/01/27 02:07:50;;;;;;;0.40;0.40;;;-0.40;94.70;;;;;;5054088;28;20166;-68
2023/01/27 02:10:16;;;;;;;1.00;1.00;;;-0.50;94.60;;;;;;5053826;28;20546;-67
2023/01/27 02:12:42;;;;;;;0.30;0.30;;;-0.70;94.80;;;;;;5053244;28;20185;-68
2023/01/27 02:15:09;;;;;;;0.40;0.40;;;-0.60;95.20;;;;;;5053499;28;20292;-67
2023/01/27 02:17:35;;;;;;;0.40;0.40;;;-0.60;94.90;;;;;;5053530;28;20193;-68
2023/01/27 02:20:30;;;;;;;0.30;0.30;;;-0.50;94.90;;;;;;5053147;28;20209;-68
2023/01/27 02:23:04;;;;;;;1.20;1.10;;;-0.50;95.10;;;;;;5053239;28;20741;-67
2023/01/27 02:26:02;;;;;;;0.50;0.50;;;-0.50;94.80;;;;;;5053595;28;20228;-68
2023/01/27 02:28:30;;;;;;;0.40;0.40;;;-0.40;94.70;;;;;;5043939;28;20288;-67
2023/01/27 02:30:56;;;;;;;1.05;1.05;;;-0.30;94.90;;;;;;5053697;28;20194;-67
2023/01/27 02:33:22;;;;;;;0.50;0.50;;;-0.40;94.70;;;;;;5055434;28;20202;-68
2023/01/27 02:36:00;;;;;;;0.40;0.40;;;-0.30;94.80;;;;;;5057392;28;20174;-67
2023/01/27 02:38:33;;;;;;;0.40;0.40;;;-0.20;94.60;;;;;;5057395;28;20619;-67
2023/01/27 02:41:13;;;;;;;0.60;0.60;;;-0.10;94.60;;;;;;5057599;28;20174;-68
2023/01/27 02:43:38;;;;;;;1.48;1.38;;;-0.10;94.20;;;;;;5056782;28;20488;-68
2023/01/27 02:46:04;;;;;;;0.50;0.50;;;0.00;93.70;;;;;;5056999;28;20178;-68
2023/01/27 02:48:30;;;;;;;0.30;0.30;;;-0.10;93.60;;;;;;5056969;28;20202;-68
2023/01/27 02:50:55;;;;;;;9.83;2.47;;;-0.20;93.50;;;;;;5057147;28;20259;-67
2023/01/27 02:53:21;;;;;;;0.40;0.40;;;-0.20;93.60;;;;;;5056554;28;20166;-68
2023/01/27 02:55:46;;;;;;;0.30;0.30;;;-0.20;93.50;;;;;;5057119;28;20170;-68
2023/01/27 02:58:15;;;;;;;0.50;0.50;;;-0.30;93.60;;;;;;5056862;28;20220;-68
2023/01/27 03:00:41;;;;;;;0.60;0.60;;;-0.30;93.80;;;;;;5056750;28;20609;-67
2023/01/27 03:03:07;;;;;;;0.30;0.30;;;-0.20;93.80;;;;;;5056690;28;20166;-68
2023/01/27 03:05:33;;;;;;;0.40;0.40;;;-0.20;94.00;;;;;;5056903;28;20224;-67
2023/01/27 03:07:58;;;;;;;0.40;0.40;;;-0.20;93.90;;;;;;5057003;28;20446;-67
2023/01/27 03:10:24;;;;;;;0.40;0.40;;;-0.20;94.10;;;;;;5056923;28;20206;-68
2023/01/27 03:12:50;;;;;;;0.60;0.60;;;-0.10;94.20;;;;;;5056225;28;20451;-67
2023/01/27 03:18:17;;;;;;;0.30;0.30;;;-0.10;94.00;;;;;;5057075;28;20212;-68
2023/01/27 03:20:45;;;;;;;0.30;0.30;;;-0.10;94.10;;;;;;5055180;28;20691;-67
2023/01/27 03:23:11;;;;;;;0.60;0.60;;;0.00;94.10;;;;;;5056027;28;20178;-68
2023/01/27 03:25:41;;;;;;;0.30;0.30;;;0.00;94.00;;;;;;5056367;28;20167;-68
2023/01/27 03:28:06;;;;;;;0.40;0.40;;;0.00;94.00;;;;;;5055006;28;20261;-67
2023/01/27 03:30:33;;;;;;;0.30;0.30;;;0.00;94.10;;;;;;5056392;28;20270;-68
2023/01/27 03:32:59;;;;;;;0.40;0.40;;;-0.20;94.20;;;;;;5055949;28;20217;-68
2023/01/27 03:35:33;;;;;;;0.80;0.80;;;-0.10;94.60;;;;;;5056541;28;20552;-68
2023/01/27 03:46:18;;;;;;;0.75;0.75;;;-0.20;94.60;;;;;;5056040;28;20240;-68
2023/01/27 03:48:49;;;;;;;0.40;0.40;;;-0.30;98.20;;;;;;5055722;28;20212;-67
2023/01/27 03:51:15;;;;;;;0.40;0.40;;;-0.30;95.00;;;;;;5055647;28;20582;-68
2023/01/27 03:53:41;;;;;;;1.30;1.15;;;-0.30;95.20;;;;;;5055784;28;20174;-68
2023/01/27 03:56:06;;;;;;;5.47;0.83;;;-0.30;95.30;;;;;;5056138;28;20507;-67
2023/01/27 03:58:34;;;;;;;0.30;0.30;;;-0.30;95.10;;;;;;5056167;28;20620;-68
2023/01/27 04:01:07;;;;;;;0.32;0.32;;;-0.20;95.40;;;;;;5055803;28;20224;-68
2023/01/27 04:09:08;;;;;;;0.30;0.30;;;-0.20;95.10;;;;;;5055342;28;20279;-68
2023/01/27 04:14:18;;;;;;;0.40;0.40;;;-0.20;95.20;;;;;;5055651;28;20201;-68
2023/01/27 04:16:44;;;;;;;0.40;0.40;;;-0.20;95.60;;;;;;5055684;28;20171;-67
2023/01/27 04:19:10;;;;;;;0.30;0.30;;;-0.20;95.50;;;;;;5055294;28;20415;-68
2023/01/27 04:21:36;;;;;;;0.30;0.30;;;-0.20;95.60;;;;;;5055069;28;20202;-68
2023/01/27 04:24:03;;;;;;;0.40;0.40;;;-0.30;95.60;;;;;;5054866;28;20213;-68
2023/01/27 04:26:33;;;;;;;0.52;0.52;;;-0.20;95.80;;;;;;5055307;28;20166;-68
2023/01/27 04:29:03;;;;;;;1.42;1.42;;;-0.20;95.90;;;;;;5055472;28;20225;-68
2023/01/27 04:31:29;;;;;;;0.47;0.47;;;-0.40;95.50;;;;;;5055243;28;20566;-68
2023/01/27 04:33:55;;;;;;;0.40;0.40;;;-0.50;95.80;;;;;;5054840;28;20528;-68
2023/01/27 04:36:21;;;;;;;0.30;0.30;;;-0.70;96.10;;;;;;5055052;28;20162;-68
2023/01/27 04:38:47;;;;;;;0.30;0.30;;;-1.10;99.90;;;;;;5055008;28;20405;-68
2023/01/27 04:41:13;;;;;;;0.63;0.63;;;-1.00;96.70;;;;;;5054705;28;20227;-67
2023/01/27 04:43:38;;;;;;;0.40;0.40;;;-1.00;97.00;;;;;;5054983;28;20253;-68
2023/01/27 04:46:04;;;;;;;0.30;0.30;;;-1.00;97.30;;;;;;5055156;28;20409;-68
2023/01/27 04:48:30;;;;;;;0.80;0.80;;;-1.30;97.50;;;;;;5054449;28;20704;-67
2023/01/27 04:50:55;;;;;;;0.70;0.70;;;-1.10;98.00;;;;;;5054537;28;20189;-67
2023/01/27 04:53:21;;;;;;;0.40;0.40;;;-0.90;98.10;;;;;;5054338;28;20543;-68
2023/01/27 04:55:48;;;;;;;0.30;0.30;;;-0.70;97.90;;;;;;5054537;28;20170;-68
2023/01/27 04:58:16;;;;;;;1.20;1.20;;;-0.50;97.60;;;;;;5054714;28;20643;-68
2023/01/27 05:00:42;;;;;;;1.02;1.02;;;-0.40;97.10;;;;;;5054849;28;20193;-68
2023/01/27 05:03:09;;;;;;;1.35;1.35;;;-0.30;96.80;;;;;;5054067;28;20178;-67
2023/01/27 05:05:35;;;;;;;0.70;0.70;;;-0.20;96.30;;;;;;5054150;28;20192;-68
2023/01/27 05:08:05;;;;;;;0.30;0.30;;;-0.10;95.90;;;;;;5054422;28;20173;-68
2023/01/27 05:10:31;;;;;;;0.40;0.40;;;-0.10;95.60;;;;;;5054005;28;20210;-67
2023/01/27 05:12:57;;;;;;;0.40;0.40;;;-0.10;95.50;;;;;;5054004;28;20166;-68
2023/01/27 05:15:24;;;;;;;0.55;0.55;;;-0.10;95.10;;;;;;5054677;28;20545;-68
2023/01/27 05:17:49;;;;;;;1.73;1.63;;;-0.30;95.10;;;;;;5054014;28;20169;-68
2023/01/27 05:20:15;;;;;;;2.30;2.10;;;-0.40;95.50;;;;;;5054087;28;20575;-68
2023/01/27 05:22:41;;;;;;;0.30;0.30;;;-0.40;95.80;;;;;;5054032;28;20247;-68
2023/01/27 05:25:08;;;;;;;0.57;0.57;;;-0.30;95.90;;;;;;5054482;28;20171;-68
2023/01/27 05:27:34;;;;;;;0.30;0.30;;;-0.20;95.70;;;;;;5054166;28;20901;-68
2023/01/27 05:29:59;;;;;;;0.43;0.43;;;-0.30;95.70;;;;;;5054612;28;20225;-68
2023/01/27 05:32:25;;;;;;;0.30;0.30;;;-0.20;95.90;;;;;;5054376;28;20420;-68
2023/01/27 05:34:50;;;;;;;0.30;0.30;;;-0.20;95.60;;;;;;5053983;28;20171;-68
2023/01/27 05:37:16;;;;;;;0.30;0.30;;;-0.10;95.50;;;;;;5054400;28;20170;-68
2023/01/27 05:39:42;;;;;;;0.30;0.30;;;-0.10;95.10;;;;;;5054188;28;20198;-68
2023/01/27 05:42:07;;;;;;;0.30;0.30;;;-0.20;94.90;;;;;;5053682;28;20174;-68
2023/01/27 05:44:33;;;;;;;0.40;0.40;;;-0.20;95.10;;;;;;5054368;28;20607;-68
2023/01/27 05:46:58;;;;;;;2.20;1.07;;;-0.20;95.10;;;;;;5053897;28;20174;-68
2023/01/27 05:49:24;;;;;;;0.50;0.50;;;-0.10;94.90;;;;;;5054012;28;20202;-69
2023/01/27 05:51:50;;;;;;;0.30;0.30;;;;;;;;;;5053687;28;20205;-68
2023/01/27 05:54:16;;;;;;;2.15;2.05;;;-0.10;94.30;;;;;;5054197;28;20182;-68
2023/01/27 05:56:42;;;;;;;0.40;0.40;;;-0.10;94.50;;;;;;5054146;28;20166;-69
2023/01/27 05:59:09;;;;;;;0.40;0.40;;;-0.10;94.40;;;;;;5053424;28;20212;-68
2023/01/27 06:01:36;;;;;;;0.40;0.40;;;-0.10;94.20;;;;;;5054512;28;20538;-68
2023/01/27 06:04:03;;;;;;;0.40;0.40;;;-0.10;94.30;;;;;;5053535;28;20181;-68
2023/01/27 06:06:30;;;;;;;0.40;0.40;;;-0.20;94.60;;;;;;5054131;28;20234;-68
2023/01/27 06:08:56;;;;;;;0.30;0.30;;;-0.40;94.80;;;;;;5059994;28;20555;-68
2023/01/27 06:11:23;;;;;;;0.30;0.30;;;-0.40;94.60;;;;;;5060406;28;20167;-68
2023/01/27 06:13:50;;;;;;;0.30;0.30;;;-0.40;94.40;;;;;;5059717;28;20211;-68
2023/01/27 06:16:17;;;;;;;1.77;1.65;;;-0.30;94.60;;;;;;5060400;28;20174;-68
2023/01/27 06:18:43;;;;;;;2.97;2.78;;;-0.30;94.60;;;;;;5059752;28;20654;-68
2023/01/27 06:21:10;;;;;;;0.40;0.40;;;-0.10;94.50;;;;;;5060391;28;20182;-68
2023/01/27 06:23:36;;;;;;;0.30;0.30;;;-0.10;94.30;;;;;;5060154;28;20759;-68
2023/01/27 06:26:14;;;;;;;0.37;0.37;;;-0.10;94.20;;;;;;5060405;28;20257;-68
2023/01/27 06:28:40;;;;;;;0.40;0.40;;;-0.20;94.20;;;;;;5060198;28;20456;-68
2023/01/27 06:31:10;;;;;;;0.93;0.87;;;-0.20;94.30;;;;;;5060383;28;20547;-67
2023/01/27 06:33:36;;;;;;;1.35;1.35;;;-0.10;94.50;;;;;;5059692;28;20157;-68
2023/01/27 06:36:05;;;;;;;0.30;0.30;;;-0.10;94.30;;;;;;5059684;28;20175;-68
2023/01/27 06:38:30;;;;;;;0.40;0.40;;;-0.10;94.20;;;;;;5060156;28;20397;-68
2023/01/27 06:40:56;;;;;;;0.40;0.40;;;0.00;94.10;;;;;;5060337;28;20196;-68
2023/01/27 06:43:22;;;;;;;0.40;0.40;;;0.00;94.20;;;;;;5059640;28;20167;-68
2023/01/27 06:45:51;;;;;;;0.40;0.40;;;0.10;94.30;;;;;;5059897;28;20177;-68
2023/01/27 06:48:16;;;;;;;0.40;0.40;;;0.10;94.10;;;;;;5059983;28;20162;-69
2023/01/27 06:50:42;;;;;;;0.40;0.40;;;0.20;94.00;;;;;;5058315;28;20252;-68
2023/01/27 06:53:08;;;;;;;0.30;0.30;;;0.10;93.90;;;;;;5059601;28;20199;-68
2023/01/27 06:55:40;;;;;;;0.30;0.30;;;0.10;93.90;;;;;;5060276;28;20174;-68
2023/01/27 06:58:07;;;;;;;0.63;0.63;;;0.00;93.90;;;;;;5059728;28;20402;-68
2023/01/27 07:00:32;;;;;;;5.53;1.60;;;0.10;94.00;;;;;;5059444;28;20202;-68
2023/01/27 07:02:58;;;;;;;0.60;0.60;;;0.10;94.20;;;;;;5059486;28;20180;-69
2023/01/27 07:05:24;;;;;;;0.40;0.40;;;0.10;94.20;;;;;;5059474;28;20253;-68
2023/01/27 07:07:49;;;;;;;0.30;0.30;;;0.20;94.30;;;;;;5060182;28;20203;-68
2023/01/27 07:10:15;;;;;;;0.40;0.40;;;0.20;93.90;;;;;;5059588;28;20479;-68
2023/01/27 07:12:41;;;;;;;0.33;0.33;;;0.10;93.80;;;;;;5059396;28;20181;-67
2023/01/27 07:15:08;;;;;;;4.33;1.23;;;0.10;94.00;;;;;;5058413;28;20405;-68
2023/01/27 07:17:34;;;;;;;1.10;1.05;;;0.10;93.80;;;;;;5059638;28;20258;-68
2023/01/27 07:20:01;;;;;;;0.65;0.57;;;0.10;94.00;;;;;;5056769;28;20573;-68
2023/01/27 07:22:27;;;;;;;0.30;0.30;;;0.10;93.90;;;;;;5056442;28;20175;-68
2023/01/27 07:24:54;;;;;;;0.40;0.40;;;0.20;94.00;;;;;;5056336;28;20198;-67
2023/01/27 07:27:20;;;;;;;0.40;0.38;;;0.20;93.90;;;;;;5056246;28;20174;-68
2023/01/27 07:29:46;;;;;;;0.75;0.63;;;0.20;93.90;;;;;;5055800;28;20217;-68
2023/01/27 07:32:11;;;;;;;0.90;0.90;;;0.30;93.90;;;;;;5056053;28;20171;-68
2023/01/27 07:34:37;;;;;;;1.87;1.77;;;0.30;93.80;;;;;;5056537;28;20584;-68
2023/01/27 07:37:04;;;;;;;0.30;0.30;;;0.30;93.60;;;;;;5055301;28;20201;-68
2023/01/27 07:39:30;;;;;;;0.40;0.40;;;0.40;93.40;;;;;;5056521;28;20183;-68
2023/01/27 07:41:57;;;;;;;0.43;0.43;;;0.40;93.30;;;;;;5055835;28;20178;-68
2023/01/27 07:44:23;;;;;;;0.30;0.30;;;0.40;93.10;;;;;;5056197;28;20167;-68
2023/01/27 07:46:48;;;;;;;0.30;0.30;;;0.40;93.20;;;;;;5055810;28;20177;-68
2023/01/27 07:49:14;;;;;;;1.80;1.70;;;0.30;93.40;;;;;;5055810;28;20208;-68
2023/01/27 07:51:40;;;;;;;0.40;0.40;;;0.30;93.40;;;;;;5056226;28;20200;-68
2023/01/27 07:54:05;;;;;;;1.07;1.07;;;-0.10;93.30;;;;;;5054618;28;20171;-72
2023/01/27 07:56:31;;;;;;;0.30;0.30;;;-0.30;93.70;;;;;;5055709;28;20171;-68
2023/01/27 07:58:57;;;;;;;0.40;0.40;;;-0.30;94.10;;;;;;5055650;28;20535;-71
2023/01/27 08:01:23;;;;;;;0.40;0.40;;;-0.30;94.00;;;;;;5055875;28;20224;-72
2023/01/27 08:03:49;;;;;;;0.30;0.30;;;-0.40;94.00;;;;;;5055808;28;20237;-70
2023/01/27 08:06:14;;;;;;;0.67;0.50;;;-0.80;94.20;;;;;;5056006;28;20616;-71
2023/01/27 08:08:40;;;;;;;0.40;0.40;;;-1.20;95.00;;;;;;5055208;28;20205;-72
2023/01/27 08:11:08;;;;;;;0.40;0.40;;;-1.00;95.60;;;;;;5055452;28;20181;-69
2023/01/27 08:13:34;;;;;;;0.65;0.65;;;-0.80;95.40;;;;;;5055367;28;20401;-71
2023/01/27 08:16:04;;;;;;;0.40;0.40;;;-0.60;95.20;;;;;;5055567;28;20216;-69
2023/01/27 08:18:29;;;;;;;0.40;0.40;;;-0.40;95.00;;;;;;5055381;28;20174;-71
2023/01/27 08:21:00;;;;;;;0.30;0.30;;;-0.30;94.50;;;;;;5055538;28;20273;-70
2023/01/27 08:23:25;;;;;;;0.40;0.40;;;-0.20;93.90;;;;;;5055138;28;20169;-71
2023/01/27 08:25:56;;;;;;;1.00;0.90;;;-0.10;93.50;;;;;;5055239;28;20521;-70
2023/01/27 08:28:24;;;;;;;1.02;0.98;;;-0.10;93.10;;;;;;5054722;28;20228;-70
2023/01/27 08:30:50;;;;;;;0.52;0.52;;;0.10;93.20;;;;;;5054770;28;20204;-71
2023/01/27 08:33:17;;;;;;;0.40;0.40;;;0.10;92.70;;;;;;5054789;28;20174;-71
2023/01/27 08:35:43;;;;;;;0.40;0.40;;;0.30;92.50;;;;;;5055227;28;20173;-70
2023/01/27 08:38:13;;;;;;;0.30;0.30;;;0.20;92.20;;;;;;5055063;28;20174;-69
2023/01/27 08:40:41;;;;;;;0.98;0.98;;;0.20;92.50;;;;;;5055270;28;20436;-71
2023/01/27 08:43:08;;;;;;;0.30;0.30;;;0.10;92.80;;;;;;5054575;28;20170;-70
2023/01/27 08:45:34;;;;;;;0.40;0.40;;;0.20;92.60;;;;;;5055213;28;20174;-71
2023/01/27 08:48:00;;;;;;;0.40;0.40;;;0.10;92.70;;;;;;5054520;28;20182;-70
2023/01/27 08:50:26;;;;;;;0.40;0.40;;;0.20;92.70;;;;;;5053245;28;20214;-71
2023/01/27 08:52:52;;;;;;;0.30;0.30;;;0.20;92.50;;;;;;5054453;28;20397;-71
2023/01/27 08:55:17;;;;;;;0.60;0.60;;;0.30;92.50;;;;;;5054793;28;20503;-69
2023/01/27 08:57:43;;;;;;;0.30;0.30;;;0.40;92.40;;;;;;5054832;28;20169;-70
2023/01/27 09:00:13;;;;;;;0.67;0.60;;;0.40;92.40;;;;;;5054293;28;20647;-70
2023/01/27 09:02:39;;;;;;;0.30;0.30;;;0.40;92.50;;;;;;5054534;28;20253;-71
2023/01/27 09:05:05;;;;;;;0.50;0.50;;;0.40;92.60;;;;;;5054384;28;20258;-71
2023/01/27 09:07:33;;;;;;;1.02;0.65;;;0.40;92.40;;;;;;5054538;28;20902;-68
2023/01/27 09:09:58;;;;;;;0.30;0.30;;;0.40;92.20;;;;;;5054034;28;20210;-70
2023/01/27 09:12:24;;;;;;;0.40;0.40;;;0.40;92.30;;;;;;5053938;28;20285;-71
2023/01/27 09:14:49;;;;;;;0.40;0.40;;;0.50;92.10;;;;;;5054478;28;20206;-70
2023/01/27 09:17:18;;;;;;;0.40;0.40;;;0.40;92.60;;;;;;5054691;28;20168;-68
2023/01/27 09:19:44;;;;;;;0.30;0.30;;;0.60;93.00;;;;;;5054173;28;20199;-69
2023/01/27 09:22:10;;;;;;;0.40;0.40;;;0.80;92.30;;;;;;5053984;28;20621;-68
2023/01/27 09:24:36;;;;;;;0.40;0.40;;;1.00;91.70;;;;;;5054163;28;20207;-67
2023/01/27 09:27:01;;;;;;;2.30;2.00;;;1.00;91.40;;;;;;5054433;28;20618;-70
2023/01/27 09:29:28;;;;;;;0.30;0.30;;;0.90;91.00;;;;;;5054022;28;20203;-70
2023/01/27 09:31:53;;;;;;;0.32;0.32;;;0.80;91.20;;;;;;5054321;28;20249;-68
2023/01/27 09:34:19;;;;;;;0.40;0.40;;;0.80;91.60;;;;;;5053799;28;20297;-68
2023/01/27 09:36:51;;;;;;;0.30;0.30;;;0.90;91.60;;;;;;5053599;28;20548;-67
2023/01/27 09:39:19;;;;;;;0.30;0.30;;;1.00;91.70;;;;;;5053057;28;20195;-69
2023/01/27 09:42:14;;;;;;;0.73;0.73;;;1.00;91.10;;;;;;5052782;28;20664;-69
2023/01/27 09:44:49;;;;;;;0.40;0.40;;;1.00;91.10;;;;;;5053685;28;20543;-67
2023/01/27 09:47:45;;;;;;;0.65;0.65;;;0.90;91.40;;;;;;5053240;28;20167;-67
2023/01/27 09:50:29;;;;;;;0.52;0.52;;;0.80;91.80;;;;;;5053583;28;20286;-68
2023/01/27 09:53:11;;;;;;;0.60;0.60;;;0.90;91.80;;;;;;5053329;28;20160;-68
2023/01/27 09:56:14;;;;;;;1.00;0.63;;;1.00;91.20;;;;;;5053746;28;20159;-69
2023/01/27 09:58:58;;;;;;;0.40;0.40;;;0.90;91.50;;;;;;5052654;28;20179;-68
2023/01/27 10:01:23;;;;;;;1.08;0.98;;;0.90;91.60;;;;;;5053841;28;20171;-68
2023/01/27 10:04:10;;;;;;;4.00;1.53;;;0.80;91.80;;;;;;5053444;28;20657;-68
2023/01/27 10:06:54;;;;;;;0.30;0.30;;;0.80;92.20;;;;;;5053530;28;20185;-68
2023/01/27 10:09:39;;;;;;;1.15;1.15;;;0.80;91.70;;;;;;5053711;28;20207;-68
2023/01/27 10:12:45;;;;;;;0.40;0.40;;;0.80;91.60;;;;;;5053549;28;20234;-67
2023/01/27 10:15:31;;;;;;;0.40;0.40;;;0.90;92.00;;;;;;5053871;28;20175;-69
2023/01/27 10:18:02;;;;;;;0.30;0.30;;;0.90;92.40;;;;;;5053299;28;20552;-68
2023/01/27 10:20:39;;;;;;;0.30;0.30;;;0.90;91.80;;;;;;5053359;28;20215;-69
2023/01/27 10:23:12;;;;;;;0.32;0.32;;;1.10;91.90;;;;;;5053042;28;20537;-69
2023/01/27 10:26:01;;;;;;;0.30;0.30;;;1.30;91.80;;;;;;5051960;28;20649;-68
2023/01/27 10:28:29;;;;;;;1.10;0.90;;;1.50;91.40;;;;;;5053654;28;20173;-69
2023/01/27 10:31:10;;;;;;;0.82;0.82;;;1.40;91.30;;;;;;5053418;28;20675;-67
2023/01/27 10:33:57;;;;;;;1.08;1.08;;;1.40;91.10;;;;;;5053384;28;20228;-68
2023/01/27 10:36:28;;;;;;;0.50;0.50;;;1.40;91.00;;;;;;5053780;28;20192;-68
2023/01/27 10:39:02;;;;;;;0.93;0.93;;;1.50;91.90;;;;;;5053269;28;20177;-68
2023/01/27 10:41:32;;;;;;;1.15;1.05;;;1.80;90.40;;;;;;5053487;28;20193;-68
2023/01/27 10:44:20;;;;;;;0.38;0.38;;;1.80;90.10;;;;;;5053284;28;20188;-68
2023/01/27 10:46:52;;;;;;;0.40;0.40;;;1.90;90.50;;;;;;5052908;28;20187;-69
2023/01/27 10:49:30;;;;;;;0.55;0.55;;;1.80;90.10;;;;;;5053254;28;20240;-68
2023/01/27 10:51:56;;;;;;;0.50;0.50;;;1.70;89.70;;;;;;5052928;28;20245;-67
2023/01/27 10:54:52;;;;;;;0.30;0.30;;;1.50;90.00;;;;;;5055821;28;20199;-68
2023/01/27 10:57:30;;;;;;;5.22;1.08;;;1.70;90.40;;;;;;5057157;28;20184;-69
2023/01/27 11:00:41;;;;;;;0.30;0.30;;;1.90;90.00;;;;;;5058145;28;20264;-67
2023/01/27 11:03:34;;;;;;;0.40;0.40;;;2.30;89.50;;;;;;5057479;28;20185;-69
2023/01/27 11:06:20;;;;;;;2.80;2.55;;;2.80;89.40;;;;;;5059181;28;20173;-68
2023/01/27 11:09:01;;;;;;;0.55;0.55;;;3.10;86.90;;;;;;5061200;28;20741;-69
2023/01/27 11:14:37;;;;;;;1.80;1.70;;;3.50;84.80;;;;;;5059323;28;20220;-70
2023/01/27 11:17:36;;;;;;;0.70;0.60;;;3.50;83.70;;;;;;5059338;28;20181;-70
2023/01/27 11:20:26;;;;;;;0.38;0.38;;;3.50;84.10;;;;;;5059155;28;20287;-70
2023/01/27 11:23:16;;;;;;;1.15;1.15;;;3.70;85.60;;;;;;5056710;28;20202;-70
2023/01/27 11:26:11;;;;;;;5.07;2.13;;;4.30;83.30;;;;;;5056804;28;20576;-70
2023/01/27 11:28:58;;;;;;;0.50;0.50;;;4.70;80.50;;;;;;5056711;28;20174;-70
2023/01/27 11:31:38;;;;;;;0.40;0.40;;;4.70;79.70;;;;;;5056493;28;20190;-70
2023/01/27 11:34:28;;;;;;;1.48;0.75;;;4.60;79.70;;;;;;5056623;28;20638;-70
2023/01/27 11:36:54;;;;;;;0.98;0.98;;;4.40;80.00;;;;;;5056746;28;20170;-70
2023/01/27 11:39:20;;;;;;;1.80;0.83;;;4.30;79.60;;;;;;5056169;28;20206;-70
2023/01/27 11:41:55;;;;;;;0.87;0.87;;;4.10;79.60;;;;;;5055884;28;20535;-70
2023/01/27 11:44:24;;;;;;;1.95;0.70;;;3.80;81.10;;;;;;5056244;28;20902;-70
2023/01/27 11:46:52;;;;;;;1.45;1.38;;;3.50;81.50;;;;;;5056267;28;20185;-70
2023/01/27 11:49:28;;;;;;;5.10;1.77;;;3.30;82.00;;;;;;5055690;28;20281;-70
2023/01/27 11:52:08;;;;;;;3.63;0.80;;;3.00;82.80;;;;;;5055882;28;20174;-70
2023/01/27 11:54:48;;;;;;;0.40;0.40;;;2.50;84.00;;;;;;5056007;28;20170;-69
2023/01/27 11:57:22;;;;;;;0.40;0.40;;;2.50;84.90;;;;;;5056197;28;20623;-70
2023/01/27 11:59:59;;;;;;;0.70;0.70;;;2.20;84.50;;;;;;5054646;28;20203;-70
2023/01/27 12:02:39;;;;;;;0.30;0.30;;;2.10;85.20;;;;;;5055416;28;20181;-69
2023/01/27 12:05:14;;;;;;;1.20;1.20;;;2.10;85.80;;;;;;5055229;28;20180;-69
2023/01/27 12:07:56;;;;;;;0.40;0.40;;;2.20;86.00;;;;;;5054985;28;20172;-71
2023/01/27 12:10:28;;;;;;;0.70;0.70;;;2.20;86.00;;;;;;5054340;28;20330;-69
2023/01/27 12:12:55;;;;;;;0.30;0.30;;;2.10;86.20;;;;;;5055378;28;20557;-69
2023/01/27 12:15:25;;;;;;;0.32;0.32;;;2.10;86.10;;;;;;5055654;28;20255;-69
2023/01/27 12:18:01;;;;;;;0.93;0.93;;;1.90;86.00;;;;;;5055776;28;20231;-67
2023/01/27 12:20:31;;;;;;;0.40;0.40;;;1.70;86.20;;;;;;5053911;28;20215;-68
2023/01/27 12:23:19;;;;;;;0.50;0.50;;;1.40;87.60;;;;;;5054985;28;20179;-67
2023/01/27 12:25:51;;;;;;;0.55;0.55;;;1.60;88.20;;;;;;5055406;28;20255;-68
2023/01/27 12:28:40;;;;;;;1.08;1.08;;;1.80;89.10;;;;;;5055497;28;20171;-67
2023/01/27 12:31:41;;;;;;;0.85;0.70;;;2.10;88.50;;;;;;5054317;28;20173;-69
2023/01/27 12:34:24;;;;;;;1.77;1.67;;;2.50;87.30;;;;;;5055251;28;20271;-69
2023/01/27 12:36:51;;;;;;;0.40;0.40;;;2.60;85.30;;;;;;5054138;28;20188;-70
2023/01/27 12:39:28;;;;;;;0.40;0.40;;;2.60;85.50;;;;;;5054014;28;20198;-70
2023/01/27 12:41:54;;;;;;;0.60;0.60;;;2.70;85.40;;;;;;5054699;28;20623;-70
2023/01/27 12:44:24;;;;;;;0.60;0.60;;;2.60;84.40;;;;;;5054784;28;20208;-69
2023/01/27 12:47:13;;;;;;;1.40;1.30;;;2.50;84.60;;;;;;5055151;28;20414;-70
2023/01/27 12:49:42;;;;;;;0.40;0.40;;;2.30;84.90;;;;;;5054603;28;20208;-70
2023/01/27 12:52:19;;;;;;;0.40;0.40;;;2.40;85.80;;;;;;5054337;28;20166;-70
2023/01/27 12:54:45;;;;;;;1.25;1.25;;;2.50;85.60;;;;;;5053908;28;20228;-70
2023/01/27 12:57:17;;;;;;;0.60;0.60;;;2.50;84.90;;;;;;5054533;28;20632;-70
2023/01/27 12:59:50;;;;;;;2.15;1.42;;;2.50;85.20;;;;;;5054674;28;20678;-70
2023/01/27 13:02:20;;;;;;;0.50;0.50;;;2.60;85.80;;;;;;5052933;28;20637;-70
2023/01/27 13:04:51;;;;;;;0.40;0.40;;;2.60;85.10;;;;;;5054359;28;20171;-70
2023/01/27 13:07:21;;;;;;;0.40;0.40;;;2.50;84.70;;;;;;5054633;28;20253;-70
2023/01/27 13:10:05;;;;;;;0.68;0.68;;;2.40;85.30;;;;;;5054513;28;20279;-70
2023/01/27 13:12:53;;;;;;;0.40;0.40;;;2.50;86.20;;;;;;5054223;28;20170;-70
2023/01/27 13:15:24;;;;;;;3.38;1.80;;;2.80;85.70;;;;;;5054394;28;20174;-70
2023/01/27 13:18:10;;;;;;;2.55;1.25;;;2.60;84.30;;;;;;5054340;28;20201;-70
2023/01/27 13:20:46;;;;;;;0.40;0.40;;;2.70;84.90;;;;;;5054467;28;20214;-70
2023/01/27 13:23:18;;;;;;;1.40;1.30;;;2.90;84.90;;;;;;5054029;28;20174;-70
2023/01/27 13:26:08;;;;;;;0.40;0.40;;;3.00;83.50;;;;;;5054184;28;20181;-70
2023/01/27 13:28:45;;;;;;;0.40;0.40;;;2.70;82.70;;;;;;5053049;28;20181;-69
2023/01/27 13:31:27;;;;;;;3.83;3.63;;;2.10;83.40;;;;;;5054584;28;20152;-69
2023/01/27 13:34:12;;;;;;;0.40;0.40;;;1.90;84.60;;;;;;5052591;28;20639;-69
2023/01/27 13:37:05;;;;;;;0.45;0.45;;;2.00;85.40;;;;;;5054270;28;20177;-70
2023/01/27 13:40:07;;;;;;;2.22;2.13;;;2.30;85.00;;;;;;5052786;28;20690;-71
2023/01/27 13:42:43;;;;;;;2.85;2.70;;;2.80;84.80;;;;;;5053802;28;20177;-70
2023/01/27 13:45:36;;;;;;;1.17;1.15;;;3.10;83.60;;;;;;5054094;28;20760;-70